Time;durP1;ratioP1;P1;durP2;ratioP2;P2;SDS_P1;SDS_P2;PMS_P1;PMS_P2;Temp;Humidity;BMP_temperature;BMP_pressure;BME280_temperature;BME280_humidity;BME280_pressure;Samples;Min_cycle;Max_cycle;Signal;HPM_P1;HPM_P2
2020/12/17 00:01:28;;;;;;;24.15;12.63;;;4.30;83.90;;;3.31;68.38;95414.88;5023724;28;20478;-82
2020/12/17 00:03:56;;;;;;;25.17;12.88;;;4.30;84.00;;;3.38;68.30;95416.94;5035096;28;20218;-82
2020/12/17 00:06:36;;;;;;;23.23;11.88;;;4.30;84.00;;;3.38;68.39;95422.13;5036550;28;20616;-82
2020/12/17 00:09:05;;;;;;;35.78;13.23;;;4.30;84.00;;;3.33;68.16;95414.75;5051935;28;20682;-82
2020/12/17 00:11:32;;;;;;;40.40;14.20;;;4.30;83.90;;;3.36;67.94;95419.66;5035528;28;20204;-82
2020/12/17 00:13:59;;;;;;;31.85;14.10;;;4.30;83.90;;;3.32;68.27;95413.94;5035208;28;20573;-82
2020/12/17 00:16:26;;;;;;;27.00;13.48;;;4.30;83.90;;;3.36;68.30;95420.47;5035072;28;20238;-82
2020/12/17 00:18:56;;;;;;;22.27;12.05;;;4.30;83.80;;;3.36;67.98;95427.44;5018269;28;20320;-82
2020/12/17 00:21:23;;;;;;;20.30;10.65;;;4.30;83.80;;;3.34;68.04;95427.59;5031594;28;20577;-82
2020/12/17 00:23:50;;;;;;;18.88;10.65;;;4.40;83.90;;;3.33;68.23;95422.50;5015467;28;20208;-82
2020/12/17 00:26:17;;;;;;;16.80;9.65;;;4.30;83.80;;;3.33;68.39;95422.50;5031161;28;20334;-81
2020/12/17 00:28:44;;;;;;;16.63;9.18;;;4.30;83.80;;;3.31;68.02;95427.84;5031387;28;20195;-82
2020/12/17 00:31:16;;;;;;;17.73;9.88;;;4.30;83.80;;;3.29;68.10;95419.38;5031479;28;20205;-82
2020/12/17 00:33:42;;;;;;;16.70;9.57;;;4.20;83.70;;;3.29;68.27;95428.94;5031381;28;20193;-82
2020/12/17 00:36:09;;;;;;;19.30;10.30;;;4.30;83.80;;;3.27;68.21;95420.47;5031377;28;20569;-82
2020/12/17 00:38:36;;;;;;;19.42;10.02;;;4.30;83.80;;;3.28;68.45;95435.06;5047587;28;20201;-82
2020/12/17 00:41:03;;;;;;;18.88;10.15;;;4.30;83.80;;;3.25;68.35;95417.16;5031262;28;20204;-82
2020/12/17 00:43:29;;;;;;;22.55;11.27;;;4.20;83.70;;;3.27;68.25;95429.06;5031554;28;20257;-81
2020/12/17 00:45:56;;;;;;;19.20;10.93;;;4.30;83.80;;;3.27;68.22;95436.84;5041893;28;20196;-82
2020/12/17 00:48:23;;;;;;;17.85;9.73;;;4.30;83.80;;;3.28;68.47;95429.88;5018069;28;20254;-82
2020/12/17 00:50:50;;;;;;;17.90;9.40;;;4.20;83.70;;;3.26;68.39;95426.59;5017722;28;20640;-82
2020/12/17 00:53:18;;;;;;;18.70;9.55;;;4.20;83.80;;;3.27;68.58;95420.47;5034602;28;20757;-82
2020/12/17 00:55:44;;;;;;;17.63;9.35;;;4.30;83.90;;;3.29;68.29;95427.16;5034335;28;20762;-82
2020/12/17 00:58:11;;;;;;;19.73;10.80;;;4.20;83.80;;;3.29;68.13;95429.75;5034841;28;20200;-82
2020/12/17 01:00:38;;;;;;;18.60;10.20;;;4.20;83.90;;;3.31;68.29;95432.22;5034586;28;20227;-82
2020/12/17 01:03:05;;;;;;;16.15;8.82;;;4.20;83.90;;;3.32;68.00;95432.09;5034359;28;20196;-82
2020/12/17 01:05:32;;;;;;;13.65;8.15;;;4.20;83.90;;;3.30;68.32;95431.38;5034629;28;20235;-82
2020/12/17 01:07:59;;;;;;;14.82;8.00;;;4.20;83.90;;;3.31;68.32;95427.84;5034327;28;20763;-82
2020/12/17 01:10:26;;;;;;;13.05;8.25;;;4.30;83.90;;;3.32;68.31;95431.25;5050796;28;20259;-81
2020/12/17 01:12:53;;;;;;;13.57;7.97;;;4.30;83.90;;;3.30;68.47;95428.78;5017883;28;20200;-82
2020/12/17 01:15:20;;;;;;;15.60;8.68;;;4.20;83.80;;;3.31;68.00;95427.84;5034409;28;20697;-82
2020/12/17 01:17:47;;;;;;;17.33;9.10;;;4.20;83.80;;;3.32;68.31;95428.66;5034025;28;20199;-81
2020/12/17 01:20:14;;;;;;;15.02;8.55;;;4.20;83.80;;;3.31;68.42;95430.44;5034379;28;20828;-82
2020/12/17 01:22:40;;;;;;;11.93;7.28;;;4.20;83.80;;;3.30;68.03;95423.59;5034289;28;20203;-82
2020/12/17 01:25:07;;;;;;;14.35;7.90;;;4.30;83.90;;;3.30;68.28;95428.78;5034097;28;20252;-82
2020/12/17 01:27:34;;;;;;;13.38;7.30;;;4.30;83.90;;;3.30;68.41;95426.19;5034079;28;20690;-82
2020/12/17 01:30:01;;;;;;;15.10;8.32;;;4.30;83.80;;;3.30;68.59;95430.56;5050808;28;20649;-82
2020/12/17 01:32:28;;;;;;;14.13;7.95;;;4.30;83.90;;;3.32;68.23;95428.66;5050326;28;20215;-82
2020/12/17 01:34:55;;;;;;;15.55;8.50;;;4.30;83.90;;;3.30;68.35;95421.00;5017600;28;20224;-81
2020/12/17 01:37:24;;;;;;;18.92;10.27;;;4.20;83.80;;;3.29;68.20;95426.34;5051952;28;20192;-82
2020/12/17 01:39:51;;;;;;;16.73;8.80;;;4.20;83.70;;;3.28;68.05;95425.50;5037730;28;20389;-82
2020/12/17 01:42:19;;;;;;;17.00;9.43;;;4.30;83.80;;;3.26;68.14;95413.63;5021855;28;20200;-81
2020/12/17 01:44:46;;;;;;;20.35;9.98;;;4.40;83.80;;;3.26;68.17;95424.84;5054233;28;20322;-81
2020/12/17 01:47:13;;;;;;;16.65;9.35;;;4.20;83.70;;;3.18;68.17;95411.72;5053974;28;20682;-82
2020/12/17 01:49:40;;;;;;;17.77;9.60;;;4.20;84.10;;;3.25;68.15;95417.16;5021549;28;20231;-82
2020/12/17 01:52:07;;;;;;;19.90;9.85;;;4.20;83.60;;;3.23;67.95;95419.09;5037723;28;20265;-81
2020/12/17 01:54:34;;;;;;;18.52;10.13;;;4.20;83.70;;;3.23;68.15;95416.50;5037543;28;20706;-82
2020/12/17 01:57:05;;;;;;;20.23;10.32;;;4.20;83.70;;;3.24;68.20;95418.97;5037443;28;20629;-82
2020/12/17 01:59:49;;;;;;;19.90;9.43;;;4.20;84.50;;;3.23;68.09;95414.72;5037847;28;20254;-81
2020/12/17 02:02:17;;;;;;;18.75;9.23;;;4.20;83.70;;;3.25;68.49;95425.78;5037407;28;20235;-81
2020/12/17 02:04:46;;;;;;;18.35;9.95;;;4.30;83.90;;;3.25;68.07;95419.75;5037246;28;20220;-81
2020/12/17 02:07:13;;;;;;;17.42;9.23;;;4.20;83.90;;;3.22;68.33;95412.28;5070248;28;20274;-82
2020/12/17 02:09:40;;;;;;;19.40;9.65;;;4.20;83.80;;;3.22;68.02;95412.28;5053963;28;20235;-81
2020/12/17 02:12:07;;;;;;;20.95;10.30;;;4.20;83.80;;;3.27;68.31;95420.47;5053749;28;20200;-82
2020/12/17 02:14:34;;;;;;;19.95;10.40;;;4.20;83.80;;;3.26;68.32;95424.84;5053700;28;20265;-81
2020/12/17 02:17:01;;;;;;;22.63;10.32;;;4.20;83.80;;;3.24;68.40;95416.38;5034343;28;20210;-81
2020/12/17 02:19:27;;;;;;;21.40;10.95;;;4.20;83.80;;;3.27;68.10;95417.88;5052059;28;20228;-82
2020/12/17 02:21:55;;;;;;;23.33;10.60;;;4.20;83.80;;;3.30;68.02;95425.41;5054045;28;20203;-82
2020/12/17 02:24:23;;;;;;;19.85;10.50;;;4.20;83.80;;;3.29;67.68;95418.56;5034947;28;20644;-82
2020/12/17 02:26:51;;;;;;;18.90;10.25;;;4.30;83.80;;;3.25;68.46;95423.19;5058425;28;20847;-82
2020/12/17 02:29:19;;;;;;;20.50;10.38;;;4.20;83.70;;;3.26;68.20;95426.59;5050654;28;20243;-82
2020/12/17 02:31:47;;;;;;;22.88;9.85;;;4.20;83.70;;;3.24;68.07;95421.56;5039334;28;20200;-82
2020/12/17 02:34:14;;;;;;;18.50;10.27;;;4.20;83.70;;;3.25;68.04;95422.34;5053515;28;20235;-82
2020/12/17 02:36:42;;;;;;;22.25;9.85;;;4.20;83.70;;;3.19;68.05;95411.56;5038565;28;20188;-81
2020/12/17 02:39:09;;;;;;;17.33;9.63;;;4.20;83.60;;;3.20;68.21;95417.59;5068928;28;20737;-80
2020/12/17 02:41:38;;;;;;;20.10;10.85;;;4.20;83.60;;;3.15;68.32;95417.16;5036410;28;20290;-82
2020/12/17 02:44:05;;;;;;;22.35;11.82;;;4.20;83.70;;;3.18;68.16;95424.69;5052467;28;20219;-81
2020/12/17 02:46:31;;;;;;;20.50;10.82;;;4.20;83.70;;;3.17;68.10;95421.28;5034861;28;21306;-82
2020/12/17 02:48:58;;;;;;;22.48;11.63;;;4.20;83.70;;;3.19;68.22;95428.91;5034734;28;20228;-81
2020/12/17 02:51:25;;;;;;;18.27;10.13;;;4.10;83.60;;;3.15;68.24;95420.59;5053320;28;20603;-82
2020/12/17 02:53:51;;;;;;;22.52;10.77;;;4.20;83.70;;;3.20;68.11;95425.38;5052702;28;20215;-82
2020/12/17 02:56:19;;;;;;;22.95;11.48;;;4.20;83.70;;;3.19;68.35;95424.53;5050881;28;20301;-81
2020/12/17 02:58:45;;;;;;;21.98;11.02;;;4.20;83.80;;;3.19;68.25;95423.72;5034338;28;20734;-81
2020/12/17 03:01:13;;;;;;;21.25;11.10;;;4.10;83.70;;;3.21;68.52;95424.44;5050669;28;20184;-82
2020/12/17 03:03:40;;;;;;;18.65;10.43;;;4.20;83.80;;;3.19;68.34;95426.31;5069334;28;20245;-82
2020/12/17 03:06:06;;;;;;;18.55;10.18;;;4.20;83.80;;;3.19;68.21;95426.31;5036227;28;20216;-83
2020/12/17 03:08:34;;;;;;;20.85;10.43;;;4.20;83.80;;;3.15;68.24;95420.59;5069411;28;20302;-82
2020/12/17 03:11:01;;;;;;;20.73;10.77;;;4.10;83.70;;;3.16;68.26;95423.97;5052811;28;20279;-81
2020/12/17 03:13:28;;;;;;;21.30;10.40;;;4.20;83.70;;;3.11;68.09;95418.38;5052951;28;20223;-81
2020/12/17 03:15:55;;;;;;;20.85;11.05;;;4.20;83.70;;;3.16;67.97;95424.81;5052603;28;20273;-82
2020/12/17 03:18:22;;;;;;;25.13;12.25;;;4.10;83.70;;;3.17;68.31;95425.63;5035907;28;20288;-82
2020/12/17 03:20:48;;;;;;;26.60;12.60;;;4.10;83.70;;;3.12;68.05;95418.25;5049079;28;20237;-82
2020/12/17 03:23:16;;;;;;;26.70;13.20;;;4.10;83.70;;;3.15;68.19;95427.53;5016506;28;20227;-82
2020/12/17 03:25:42;;;;;;;29.25;12.10;;;4.10;83.70;;;3.14;68.25;95423.31;5032722;28;20254;-79
2020/12/17 03:28:09;;;;;;;26.70;11.25;;;4.10;83.70;;;3.14;68.38;95420.72;5032249;28;20713;-80
2020/12/17 03:30:36;;;;;;;26.88;11.32;;;4.10;83.70;;;3.11;68.18;95408.81;5042848;28;20293;-80
2020/12/17 03:33:02;;;;;;;20.17;11.00;;;4.10;83.70;;;3.16;68.35;95424.81;5052217;28;20580;-79
2020/12/17 03:35:30;;;;;;;20.90;11.18;;;4.10;83.80;;;3.18;68.13;95420.31;5052118;28;20254;-82
2020/12/17 03:38:00;;;;;;;27.10;10.50;;;4.10;83.80;;;3.21;68.27;95427.03;5035653;28;20192;-82
2020/12/17 03:40:27;;;;;;;26.83;10.85;;;4.10;83.90;;;3.23;68.32;95422.50;5035838;28;20366;-82
2020/12/17 03:42:55;;;;;;;26.05;11.88;;;4.10;83.90;;;3.22;68.28;95422.66;5019381;28;20237;-82
2020/12/17 03:45:22;;;;;;;32.08;12.57;;;4.10;83.90;;;3.20;68.14;95423.59;5035635;28;20222;-82
2020/12/17 03:47:50;;;;;;;34.92;11.60;;;4.10;83.90;;;3.20;68.47;95420.19;5035429;28;20228;-82
2020/12/17 03:50:17;;;;;;;29.33;12.40;;;4.10;83.80;;;3.22;68.17;95426.03;5018899;28;20239;-82
2020/12/17 03:52:44;;;;;;;28.10;11.75;;;4.20;83.90;;;3.24;68.42;95423.34;5051969;28;20731;-82
2020/12/17 03:55:10;;;;;;;27.98;11.75;;;4.10;83.80;;;3.15;68.02;95417.16;5068401;28;20252;-81
2020/12/17 03:57:37;;;;;;;24.42;11.98;;;4.20;83.90;;;3.23;68.22;95427.69;5035481;28;20200;-82
2020/12/17 04:00:05;;;;;;;26.92;11.20;;;4.20;84.70;;;3.23;68.25;95432.88;5034803;28;20686;-82
2020/12/17 04:02:33;;;;;;;27.67;11.45;;;4.20;83.90;;;3.23;68.28;95425.09;5035239;28;20188;-82
2020/12/17 04:05:01;;;;;;;33.83;12.95;;;4.10;83.80;;;3.22;68.12;95425.25;5035103;28;20586;-82
2020/12/17 04:07:28;;;;;;;31.42;12.68;;;4.10;83.80;;;3.21;68.39;95419.25;5051648;28;20248;-82
2020/12/17 04:09:55;;;;;;;29.98;12.73;;;4.20;83.80;;;3.20;68.45;95415.00;5051867;28;20772;-82
2020/12/17 04:12:22;;;;;;;25.60;12.10;;;4.20;83.80;;;3.20;68.37;95417.59;5035243;28;20191;-82
2020/12/17 04:14:49;;;;;;;36.17;11.23;;;4.20;83.80;;;3.18;68.35;95412.53;5051446;28;20222;-82
2020/12/17 04:17:16;;;;;;;29.67;11.13;;;4.10;83.80;;;3.19;68.20;95415.97;5051329;28;20224;-82
2020/12/17 04:19:43;;;;;;;28.65;11.60;;;4.10;83.80;;;3.16;68.24;95418.81;5051215;28;20224;-82
2020/12/17 04:22:16;;;;;;;29.83;11.30;;;4.10;83.80;;;3.18;68.29;95417.72;5049445;28;20574;-81
2020/12/17 04:24:47;;;;;;;26.17;11.68;;;4.10;83.80;;;3.21;68.34;95429.63;5043671;28;20632;-81
2020/12/17 04:27:15;;;;;;;27.60;10.68;;;4.20;83.90;;;3.20;68.16;95423.59;5018452;28;20274;-82
2020/12/17 04:29:42;;;;;;;26.60;9.75;;;4.10;83.80;;;3.20;68.03;95425.38;5051377;28;20244;-82
2020/12/17 04:32:09;;;;;;;26.25;9.50;;;4.10;83.80;;;3.19;68.18;95428.91;5034683;28;20231;-82
2020/12/17 04:34:36;;;;;;;25.80;9.57;;;4.10;83.80;;;3.16;68.21;95435.19;5030941;28;20228;-81
2020/12/17 04:37:03;;;;;;;31.60;10.18;;;4.20;83.80;;;3.14;67.92;95436.28;4998534;28;20203;-82
2020/12/17 04:39:30;;;;;;;19.60;9.43;;;4.10;83.70;;;3.12;68.20;95427.81;5014795;28;20629;-82
2020/12/17 04:41:57;;;;;;;21.10;10.05;;;4.10;83.70;;;3.14;68.31;95431.09;5035953;28;20196;-82
2020/12/17 04:44:27;;;;;;;18.60;9.15;;;4.10;83.80;;;3.12;68.35;95430.41;5047944;28;20232;-81
2020/12/17 04:47:01;;;;;;;27.50;9.70;;;4.10;83.80;;;3.11;68.32;95432.16;5066686;28;20681;-82
2020/12/17 04:49:38;;;;;;;34.25;9.60;;;4.10;83.80;;;3.10;68.29;95430.53;5066242;28;20727;-82
2020/12/17 04:52:07;;;;;;;28.15;8.75;;;4.10;83.80;;;3.07;68.30;95429.97;5074446;28;20235;-81
2020/12/17 04:54:35;;;;;;;26.83;8.93;;;4.10;83.80;;;3.09;68.34;95438.44;5034112;28;20777;-81
2020/12/17 04:57:09;;;;;;;31.70;9.10;;;4.00;83.80;;;3.09;68.41;95441.00;5055143;28;20299;-82
2020/12/17 04:59:47;;;;;;;31.40;9.75;;;4.10;83.80;;;3.06;68.64;95436.91;5032055;28;20600;-82
2020/12/17 05:02:17;;;;;;;29.45;9.75;;;4.10;83.90;;;3.07;68.20;95433.38;5053430;28;20291;-82
2020/12/17 05:04:47;;;;;;;24.35;9.27;;;4.10;83.90;;;3.09;68.69;95433.25;5066473;28;20285;-82
2020/12/17 05:07:18;;;;;;;27.80;8.70;;;4.10;84.00;;;3.09;68.44;95423.72;5050552;28;20266;-82
2020/12/17 05:09:46;;;;;;;26.33;9.13;;;4.10;83.90;;;3.08;68.25;95422.06;5050690;28;20315;-82
2020/12/17 05:12:15;;;;;;;31.42;8.63;;;4.10;83.90;;;3.08;68.11;95429.03;5051644;28;20549;-81
2020/12/17 05:14:42;;;;;;;42.80;9.45;;;4.10;83.90;;;3.08;68.49;95435.03;5054676;28;20227;-82
2020/12/17 05:17:10;;;;;;;34.63;9.07;;;4.10;83.90;;;3.08;68.30;95426.44;5054844;28;20445;-81
2020/12/17 05:19:37;;;;;;;36.10;8.77;;;4.10;83.90;;;3.08;68.39;95431.63;5070884;28;20250;-81
2020/12/17 05:22:05;;;;;;;38.60;8.85;;;4.10;83.90;;;3.05;68.78;95432.69;5070475;28;20204;-81
2020/12/17 05:24:32;;;;;;;41.65;8.88;;;4.00;83.90;;;3.04;68.42;95434.47;5054374;28;20247;-82
2020/12/17 05:26:59;;;;;;;34.25;8.63;;;4.00;83.90;;;3.09;68.54;95443.59;5021370;28;20242;-81
2020/12/17 05:29:26;;;;;;;40.85;8.65;;;4.00;83.90;;;3.06;68.41;95436.91;5037920;28;20589;-81
2020/12/17 05:31:54;;;;;;;29.52;8.90;;;4.00;83.90;;;3.11;68.63;95446.91;5038159;28;20290;-81
2020/12/17 05:34:21;;;;;;;35.80;8.77;;;4.00;83.90;;;3.11;68.33;95452.06;5037506;28;20322;-81
2020/12/17 05:36:50;;;;;;;29.83;8.93;;;4.00;83.90;;;3.09;68.43;95447.03;5054273;28;20328;-81
2020/12/17 05:39:22;;;;;;;17.92;8.05;;;4.10;84.00;;;3.10;68.56;95453.88;5021486;28;20222;-82
2020/12/17 05:41:52;;;;;;;21.00;7.82;;;4.00;83.90;;;3.09;68.53;95448.78;5038852;28;20219;-80
2020/12/17 05:44:27;;;;;;;20.42;7.68;;;4.10;84.00;;;3.12;68.68;95458.91;5023745;28;20269;-81
2020/12/17 05:46:55;;;;;;;21.27;8.05;;;4.10;84.00;;;3.07;68.31;95456.72;5037452;28;20307;-81
2020/12/17 05:49:29;;;;;;;18.05;7.32;;;4.10;84.00;;;3.11;68.35;95467.63;5054168;28;20269;-82
2020/12/17 05:52:16;;;;;;;27.40;8.98;;;4.10;84.00;;;3.07;68.42;95456.72;5021415;28;20204;-82
2020/12/17 05:54:52;;;;;;;21.63;8.55;;;4.10;84.00;;;3.09;68.50;95460.00;5054108;28;20204;-82
2020/12/17 05:57:20;;;;;;;32.45;8.55;;;4.10;84.00;;;3.07;68.49;95464.47;5055445;28;20199;-81
2020/12/17 05:59:58;;;;;;;28.65;9.15;;;4.10;84.00;;;3.09;68.70;95466.94;5021194;28;20231;-81
2020/12/17 06:02:30;;;;;;;18.70;8.57;;;4.10;84.00;;;3.07;68.14;95467.06;5054338;28;20271;-82
2020/12/17 06:05:07;;;;;;;21.40;7.85;;;4.00;83.90;;;3.08;68.56;95473.09;5053640;28;20235;-82
2020/12/17 06:07:48;;;;;;;19.40;7.13;;;4.00;83.90;;;3.08;68.54;95468.72;5037558;28;20236;-82
2020/12/17 06:10:29;;;;;;;29.02;8.77;;;4.00;84.00;;;3.08;68.56;95467.91;5053996;28;20636;-82
2020/12/17 06:12:59;;;;;;;20.10;7.90;;;4.00;83.90;;;3.04;68.53;95462.97;5053611;28;20200;-81
2020/12/17 06:15:36;;;;;;;23.70;7.95;;;4.10;84.00;;;3.09;68.48;95462.59;5037356;28;20215;-82
2020/12/17 06:18:04;;;;;;;25.08;8.25;;;4.00;84.00;;;3.10;68.49;95463.41;5020580;28;20669;-80
2020/12/17 06:20:33;;;;;;;20.33;7.75;;;4.00;83.90;;;3.07;68.69;95456.72;5037294;28;20244;-81
2020/12/17 06:23:04;;;;;;;33.20;8.80;;;4.10;84.80;;;3.12;68.70;95462.31;5053313;28;20257;-82
2020/12/17 06:25:34;;;;;;;26.42;7.15;;;4.00;84.00;;;3.12;68.44;95458.91;5052740;28;20667;-82
2020/12/17 06:28:01;;;;;;;16.02;7.50;;;4.00;84.10;;;3.16;68.58;95471.47;5020711;28;20691;-82
2020/12/17 06:30:30;;;;;;;26.65;7.68;;;4.00;84.10;;;3.17;68.60;95472.28;5037150;28;20228;-82
2020/12/17 06:33:03;;;;;;;16.23;7.75;;;4.10;84.20;;;3.17;68.61;95472.28;5036854;28;20650;-81
2020/12/17 06:35:53;;;;;;;21.02;7.80;;;4.10;84.20;;;3.18;68.63;95472.16;5036983;28;20244;-81
2020/12/17 06:38:23;;;;;;;16.35;7.88;;;4.10;84.20;;;3.19;68.43;95466.00;5037112;28;20224;-81
2020/12/17 06:40:50;;;;;;;17.85;8.25;;;4.10;84.10;;;3.18;68.25;95469.56;5019506;28;20322;-81
2020/12/17 06:43:36;;;;;;;18.17;8.07;;;4.10;84.10;;;3.19;68.25;95483.34;5062307;28;20555;-81
2020/12/17 06:46:04;;;;;;;19.48;8.13;;;4.20;84.20;;;3.14;68.40;95473.38;5050050;28;20234;-81
2020/12/17 06:48:41;;;;;;;12.82;6.97;;;4.10;84.00;;;3.20;68.34;95482.41;5016663;28;20260;-81
2020/12/17 06:51:40;;;;;;;17.77;7.75;;;4.10;84.00;;;3.16;68.31;95479.25;5036693;28;20213;-82
2020/12/17 06:54:37;;;;;;;18.20;8.18;;;4.10;84.00;;;3.13;68.65;95479.50;5053160;28;20769;-81
2020/12/17 06:57:18;;;;;;;15.32;7.20;;;4.10;84.00;;;3.12;68.49;95488.22;5052908;28;20203;-81
2020/12/17 07:00:09;;;;;;;14.93;7.72;;;4.10;84.00;;;3.10;68.56;95479.78;5052867;28;20706;-80
2020/12/17 07:02:40;;;;;;;13.65;7.47;;;4.10;83.90;;;3.12;68.26;95487.41;5052787;28;20246;-81
2020/12/17 07:05:34;;;;;;;14.23;7.18;;;4.10;83.90;;;3.06;68.67;95483.56;5018935;28;20228;-82
2020/12/17 07:08:01;;;;;;;11.23;6.80;;;4.10;84.00;;;3.12;68.47;95492.59;5051047;28;20244;-81
2020/12/17 07:10:30;;;;;;;14.30;6.70;;;4.10;84.80;;;3.15;68.40;95484.53;5034435;28;20239;-81
2020/12/17 07:12:58;;;;;;;11.30;6.57;;;4.10;84.00;;;3.14;68.81;95485.53;5052556;28;20243;-80
2020/12/17 07:15:36;;;;;;;11.93;7.10;;;4.10;83.90;;;3.08;68.47;95480.88;5052158;28;20307;-82
2020/12/17 07:18:22;;;;;;;11.80;6.47;;;4.20;84.00;;;3.09;68.50;95483.31;5068749;28;20207;-82
2020/12/17 07:21:10;;;;;;;12.07;6.72;;;4.10;83.90;;;3.08;68.46;95481.69;5051347;28;20733;-82
2020/12/17 07:23:41;;;;;;;12.18;5.97;;;4.10;84.70;;;3.09;68.74;95475.53;5052755;28;20210;-81
2020/12/17 07:26:15;;;;;;;12.75;6.93;;;4.00;83.90;;;3.12;68.60;95487.41;5052596;28;20211;-83
2020/12/17 07:28:52;;;;;;;14.10;6.68;;;4.10;84.00;;;3.11;68.04;95478.00;5052172;28;20247;-82
2020/12/17 07:31:25;;;;;;;13.60;6.82;;;4.10;84.00;;;3.12;69.16;95479.66;5052470;28;20203;-81
2020/12/17 07:33:52;;;;;;;9.25;5.90;;;4.10;84.00;;;3.12;68.51;95484.81;5052248;28;20326;-82
2020/12/17 07:36:41;;;;;;;13.93;6.57;;;4.10;84.00;;;3.12;68.36;95487.41;5067954;28;20286;-83
2020/12/17 07:39:08;;;;;;;14.02;6.93;;;4.10;84.00;;;3.06;68.60;95487.94;5052260;28;20258;-82
2020/12/17 07:41:35;;;;;;;14.98;7.05;;;4.10;84.00;;;3.08;68.47;95497.22;5052307;28;20231;-82
2020/12/17 07:44:02;;;;;;;14.77;6.60;;;4.10;84.00;;;3.13;nan;95497.66;5052403;28;20567;-82
2020/12/17 07:46:42;;;;;;;10.15;6.43;;;4.10;84.00;;;3.13;68.40;95497.66;5068592;28;20196;-82
2020/12/17 07:49:30;;;;;;;11.23;6.88;;;4.10;84.00;;;3.11;68.53;95507.31;5051875;28;20255;-82
2020/12/17 07:51:57;;;;;;;12.27;6.82;;;4.10;84.00;;;3.11;68.78;95503.91;5049213;28;20266;-82
2020/12/17 07:54:25;;;;;;;10.80;6.60;;;4.10;83.90;;;3.08;68.53;95501.59;5032240;28;20582;-83
2020/12/17 07:57:00;;;;;;;13.27;6.75;;;4.10;83.90;;;3.14;68.57;95501.88;5031986;28;20192;-81
2020/12/17 07:59:27;;;;;;;13.57;7.50;;;4.10;84.00;;;3.17;68.63;95505.97;5035614;28;20628;-81
2020/12/17 08:02:05;;;;;;;11.93;6.97;;;4.10;84.00;;;3.18;68.05;95503.25;5053900;28;20650;-81
2020/12/17 08:04:32;;;;;;;13.93;6.95;;;4.10;84.00;;;3.18;68.92;95505.84;5051272;28;20706;-82
2020/12/17 08:07:08;;;;;;;14.85;7.05;;;4.10;84.10;;;3.24;68.84;95503.69;5051864;28;20287;-82
2020/12/17 08:09:35;;;;;;;13.98;7.70;;;4.10;84.10;;;3.25;68.60;95507.91;5048018;28;20278;-81
2020/12/17 08:12:01;;;;;;;12.35;7.13;;;4.10;84.20;;;3.26;68.25;95517.31;5052383;28;20670;-80
2020/12/17 08:14:30;;;;;;;11.45;6.57;;;4.20;84.20;;;3.28;68.43;95518.84;5068185;28;20211;-80
2020/12/17 08:17:07;;;;;;;14.27;7.38;;;4.20;84.20;;;3.31;68.61;95523.78;5051432;28;20195;-81
2020/12/17 08:19:35;;;;;;;11.23;6.95;;;4.20;84.10;;;3.34;68.69;95522.69;5033459;28;20848;-82
2020/12/17 08:22:03;;;;;;;10.95;7.18;;;4.20;84.10;;;3.36;68.49;95515.59;5049897;28;20215;-81
2020/12/17 08:24:32;;;;;;;11.23;7.32;;;4.20;84.20;;;3.36;68.59;95531.97;5034928;28;20706;-82
2020/12/17 08:27:00;;;;;;;12.95;7.30;;;4.30;84.20;;;3.38;68.22;95534.41;5050062;28;20212;-82
2020/12/17 08:29:26;;;;;;;11.10;6.55;;;4.20;84.10;;;3.40;68.45;95534.31;5049423;28;20211;-81
2020/12/17 08:31:53;;;;;;;14.82;7.03;;;4.30;84.10;;;3.41;68.64;95533.38;5016090;28;20294;-82
2020/12/17 08:34:20;;;;;;;13.82;7.25;;;4.30;84.10;;;3.40;68.65;95527.34;5032304;28;20219;-82
2020/12/17 08:36:47;;;;;;;11.63;7.00;;;4.30;84.00;;;3.40;68.50;95540.31;5032621;28;20192;-82
2020/12/17 08:39:18;;;;;;;12.65;7.20;;;4.30;84.10;;;3.43;68.11;95537.47;5016428;28;20240;-81
2020/12/17 08:41:51;;;;;;;12.15;7.45;;;4.30;84.10;;;3.44;68.48;95539.13;5018786;28;20192;-81
2020/12/17 08:44:27;;;;;;;16.13;8.93;;;4.40;84.20;;;3.47;68.51;95538.03;5034522;28;20244;-82
2020/12/17 08:46:58;;;;;;;28.52;21.40;;;4.30;84.10;;;3.48;68.15;95540.47;5051251;28;20573;-81
2020/12/17 08:49:27;;;;;;;16.88;11.50;;;4.30;84.10;;;3.48;68.48;95542.25;5017894;28;20227;-81
2020/12/17 08:51:55;;;;;;;15.02;9.45;;;4.40;84.10;;;3.47;68.57;95538.81;5018343;28;20204;-82
2020/12/17 08:54:35;;;;;;;15.68;8.70;;;4.40;84.10;;;3.51;68.19;95562.72;5034771;28;20222;-82
2020/12/17 08:57:09;;;;;;;13.30;8.10;;;4.40;84.00;;;3.52;68.26;95554.81;5051525;28;20207;-82
2020/12/17 08:59:38;;;;;;;13.98;7.63;;;4.40;84.00;;;3.50;68.32;95548.13;5034459;28;20235;-82
2020/12/17 09:02:05;;;;;;;12.18;7.47;;;4.40;84.10;;;3.56;68.20;95570.94;5034762;28;20196;-82
2020/12/17 09:04:34;;;;;;;14.52;7.35;;;4.40;84.00;;;3.61;68.35;95567.94;5050830;28;20212;-81
2020/12/17 09:07:02;;;;;;;11.20;6.60;;;4.40;84.10;;;3.62;68.38;95567.00;5033711;28;20210;-83
2020/12/17 09:09:33;;;;;;;11.77;7.53;;;4.50;84.10;;;3.63;68.48;95556.47;5050852;28;20265;-82
2020/12/17 09:12:05;;;;;;;13.20;7.43;;;4.50;84.10;;;3.65;68.61;95559.78;5035209;28;20213;-82
2020/12/17 09:14:36;;;;;;;11.98;7.45;;;4.50;84.10;;;3.64;68.45;95558.13;5050962;28;20208;-80
2020/12/17 09:17:14;;;;;;;13.95;7.82;;;4.50;84.20;;;3.67;68.47;95551.84;5034275;28;20246;-82
2020/12/17 09:19:47;;;;;;;15.25;9.40;;;4.50;84.10;;;3.65;68.15;95558.94;5017700;28;20219;-82
2020/12/17 09:22:22;;;;;;;13.90;7.82;;;4.50;84.00;;;3.65;68.34;95553.75;5047581;28;20243;-82
2020/12/17 09:24:54;;;;;;;11.65;7.10;;;4.50;83.90;;;3.64;68.22;95555.53;5047325;28;20267;-82
2020/12/17 09:27:32;;;;;;;13.35;8.65;;;4.50;83.80;;;3.65;67.99;95551.16;5032164;28;20675;-82
2020/12/17 09:30:11;;;;;;;17.35;10.13;;;4.60;83.80;;;3.63;68.13;95553.88;5030816;28;20243;-82
2020/12/17 09:32:57;;;;;;;13.13;8.13;;;4.60;83.80;;;3.66;68.15;95548.44;5014666;28;20212;-82
2020/12/17 09:35:37;;;;;;;12.90;8.05;;;4.60;83.80;;;3.68;68.22;95556.09;5023151;28;20223;-82
2020/12/17 09:38:12;;;;;;;14.40;8.23;;;4.60;83.90;;;3.71;68.28;95557.59;5050763;28;20238;-82
2020/12/17 09:40:40;;;;;;;13.00;7.57;;;4.60;83.80;;;3.73;68.32;95556.50;5017867;28;20227;-82
2020/12/17 09:43:15;;;;;;;13.80;7.43;;;4.60;83.90;;;3.76;68.33;95555.41;5017925;28;20203;-81
2020/12/17 09:45:50;;;;;;;12.90;7.00;;;4.60;83.90;;;3.83;68.18;95548.72;5034058;28;20224;-82
2020/12/17 09:48:28;;;;;;;13.27;7.78;;;4.60;84.00;;;3.83;68.40;95541.78;5048035;28;20259;-82
2020/12/17 09:51:08;;;;;;;13.60;8.70;;;4.70;84.10;;;3.91;68.18;95553.28;5030692;28;20650;-81
2020/12/17 09:53:41;;;;;;;12.80;7.40;;;4.70;84.20;;;3.93;68.22;95551.34;5047222;28;20717;-82
2020/12/17 09:56:10;;;;;;;13.82;7.88;;;4.70;84.20;;;3.97;68.56;95550.13;5030619;28;20189;-82
2020/12/17 09:58:42;;;;;;;11.75;7.18;;;4.80;84.20;;;4.02;68.10;95545.34;5048500;28;20191;-82
2020/12/17 10:01:10;;;;;;;14.02;8.27;;;4.80;84.30;;;4.01;68.30;95547.09;5050710;28;20209;-82
2020/12/17 10:03:38;;;;;;;15.23;8.43;;;4.80;84.20;;;4.07;68.37;95557.94;5033806;28;20714;-82
2020/12/17 10:06:07;;;;;;;17.00;9.32;;;4.80;84.20;;;4.09;68.10;95556.00;5033998;28;20204;-82
2020/12/17 10:08:34;;;;;;;17.13;9.75;;;4.80;84.00;;;4.08;68.07;95556.97;5050864;28;20224;-82
2020/12/17 10:11:02;;;;;;;15.65;8.63;;;4.90;84.00;;;4.10;67.96;95558.47;5033807;28;20208;-82
2020/12/17 10:13:29;;;;;;;15.70;9.85;;;4.90;84.00;;;4.11;68.34;95564.47;5050652;28;20204;-82
2020/12/17 10:15:56;;;;;;;14.88;9.18;;;4.90;83.90;;;4.10;68.29;95555.88;5017479;28;20239;-81
2020/12/17 10:18:22;;;;;;;15.63;9.73;;;4.90;84.00;;;4.11;68.27;95560.13;5033957;28;20606;-81
2020/12/17 10:20:49;;;;;;;13.35;9.07;;;4.90;83.90;;;4.13;68.27;95560.78;5033741;28;20690;-82
2020/12/17 10:23:15;;;;;;;14.35;9.13;;;4.90;83.90;;;4.14;68.38;95567.63;5033794;28;20296;-82
2020/12/17 10:25:42;;;;;;;15.10;8.40;;;5.00;84.00;;;4.18;68.09;95565.59;5050476;28;20224;-82
2020/12/17 10:28:10;;;;;;;15.15;8.65;;;5.00;84.00;;;4.23;67.81;95565.19;5050249;28;20220;-82
2020/12/17 10:30:36;;;;;;;17.23;9.38;;;5.00;84.00;;;4.20;68.11;95553.28;5050391;28;20243;-82
2020/12/17 10:33:03;;;;;;;15.85;8.77;;;5.00;84.00;;;4.25;67.96;95558.09;5050191;28;20227;-82
2020/12/17 10:35:31;;;;;;;15.75;9.05;;;5.00;84.00;;;4.29;67.94;95568.03;5036677;28;20258;-82
2020/12/17 10:37:57;;;;;;;17.40;9.82;;;5.10;84.00;;;4.26;67.90;95562.28;5036805;28;20211;-82